sensor_id;sensor_type;location;lat;lon;timestamp;P1;durP1;ratioP1;P2;durP2;ratioP2
80183;SDS011;69682;52.138;5.440;2023-07-31T00:01:43;1.23;;;0.90;;
80183;SDS011;69682;52.138;5.440;2023-07-31T00:04:10;3.25;;;1.30;;
80183;SDS011;69682;52.138;5.440;2023-07-31T00:06:37;1.05;;;0.70;;
80183;SDS011;69682;52.138;5.440;2023-07-31T00:09:04;2.92;;;1.30;;
80183;SDS011;69682;52.138;5.440;2023-07-31T00:11:30;2.10;;;1.17;;
80183;SDS011;69682;52.138;5.440;2023-07-31T00:13:57;2.83;;;1.08;;
80183;SDS011;69682;52.138;5.440;2023-07-31T00:16:24;2.15;;;1.00;;
80183;SDS011;69682;52.138;5.440;2023-07-31T00:18:51;3.65;;;1.40;;
80183;SDS011;69682;52.138;5.440;2023-07-31T00:21:17;1.98;;;1.10;;
80183;SDS011;69682;52.138;5.440;2023-07-31T00:23:44;2.60;;;2.00;;
80183;SDS011;69682;52.138;5.440;2023-07-31T00:26:10;3.80;;;1.25;;
80183;SDS011;69682;52.138;5.440;2023-07-31T00:28:37;1.35;;;1.00;;
80183;SDS011;69682;52.138;5.440;2023-07-31T00:31:03;1.95;;;1.30;;
80183;SDS011;69682;52.138;5.440;2023-07-31T00:33:30;2.05;;;1.40;;
80183;SDS011;69682;52.138;5.440;2023-07-31T00:35:57;2.05;;;1.23;;
80183;SDS011;69682;52.138;5.440;2023-07-31T00:38:24;3.50;;;1.60;;
80183;SDS011;69682;52.138;5.440;2023-07-31T00:40:51;4.88;;;1.90;;
80183;SDS011;69682;52.138;5.440;2023-07-31T00:43:17;3.67;;;2.17;;
80183;SDS011;69682;52.138;5.440;2023-07-31T00:45:45;5.82;;;2.42;;
80183;SDS011;69682;52.138;5.440;2023-07-31T00:48:11;13.98;;;3.05;;
80183;SDS011;69682;52.138;5.440;2023-07-31T00:50:38;7.90;;;2.60;;
80183;SDS011;69682;52.138;5.440;2023-07-31T00:53:05;9.15;;;2.60;;
80183;SDS011;69682;52.138;5.440;2023-07-31T00:55:32;7.93;;;3.13;;
80183;SDS011;69682;52.138;5.440;2023-07-31T00:57:59;8.82;;;4.03;;
80183;SDS011;69682;52.138;5.440;2023-07-31T01:00:25;18.80;;;3.53;;
80183;SDS011;69682;52.138;5.440;2023-07-31T01:02:52;13.93;;;4.25;;
80183;SDS011;69682;52.138;5.440;2023-07-31T01:05:25;17.48;;;4.45;;
80183;SDS011;69682;52.138;5.440;2023-07-31T01:08:37;14.38;;;3.90;;
80183;SDS011;69682;52.138;5.440;2023-07-31T01:11:09;13.90;;;4.25;;
80183;SDS011;69682;52.138;5.440;2023-07-31T01:13:40;9.60;;;3.10;;
80183;SDS011;69682;52.138;5.440;2023-07-31T01:16:07;11.23;;;4.07;;
80183;SDS011;69682;52.138;5.440;2023-07-31T01:18:33;13.00;;;4.03;;
80183;SDS011;69682;52.138;5.440;2023-07-31T01:21:16;11.82;;;4.93;;
80183;SDS011;69682;52.138;5.440;2023-07-31T01:24:11;11.27;;;3.30;;
80183;SDS011;69682;52.138;5.440;2023-07-31T01:26:56;6.18;;;2.72;;
80183;SDS011;69682;52.138;5.440;2023-07-31T01:29:33;7.55;;;2.50;;
80183;SDS011;69682;52.138;5.440;2023-07-31T01:32:08;6.15;;;2.92;;
80183;SDS011;69682;52.138;5.440;2023-07-31T01:34:37;6.00;;;2.70;;
80183;SDS011;69682;52.138;5.440;2023-07-31T01:39:31;5.43;;;2.35;;
80183;SDS011;69682;52.138;5.440;2023-07-31T01:41:58;6.32;;;2.40;;
80183;SDS011;69682;52.138;5.440;2023-07-31T01:44:24;4.65;;;2.53;;
80183;SDS011;69682;52.138;5.440;2023-07-31T01:46:51;8.20;;;3.60;;
80183;SDS011;69682;52.138;5.440;2023-07-31T01:49:18;4.65;;;2.50;;
80183;SDS011;69682;52.138;5.440;2023-07-31T01:51:44;5.70;;;2.20;;
80183;SDS011;69682;52.138;5.440;2023-07-31T01:54:11;6.90;;;2.55;;
80183;SDS011;69682;52.138;5.440;2023-07-31T01:56:37;11.77;;;4.18;;
80183;SDS011;69682;52.138;5.440;2023-07-31T01:59:04;13.05;;;4.45;;
80183;SDS011;69682;52.138;5.440;2023-07-31T02:01:31;11.43;;;4.43;;
80183;SDS011;69682;52.138;5.440;2023-07-31T02:03:57;13.60;;;4.32;;
80183;SDS011;69682;52.138;5.440;2023-07-31T02:06:24;12.23;;;4.70;;
80183;SDS011;69682;52.138;5.440;2023-07-31T02:08:51;11.60;;;4.65;;
80183;SDS011;69682;52.138;5.440;2023-07-31T02:11:17;11.93;;;3.35;;
80183;SDS011;69682;52.138;5.440;2023-07-31T02:13:44;9.00;;;3.65;;
80183;SDS011;69682;52.138;5.440;2023-07-31T02:16:10;8.23;;;2.45;;
80183;SDS011;69682;52.138;5.440;2023-07-31T02:18:37;6.97;;;2.80;;
80183;SDS011;69682;52.138;5.440;2023-07-31T02:21:03;11.90;;;4.70;;
80183;SDS011;69682;52.138;5.440;2023-07-31T02:23:30;9.77;;;4.22;;
80183;SDS011;69682;52.138;5.440;2023-07-31T02:25:57;9.60;;;3.08;;
80183;SDS011;69682;52.138;5.440;2023-07-31T02:28:23;7.20;;;4.00;;
80183;SDS011;69682;52.138;5.440;2023-07-31T02:30:50;9.18;;;3.33;;
80183;SDS011;69682;52.138;5.440;2023-07-31T02:33:17;10.93;;;3.72;;
80183;SDS011;69682;52.138;5.440;2023-07-31T02:35:44;6.65;;;2.70;;
80183;SDS011;69682;52.138;5.440;2023-07-31T02:38:10;10.10;;;3.83;;
80183;SDS011;69682;52.138;5.440;2023-07-31T02:40:37;14.63;;;3.58;;
80183;SDS011;69682;52.138;5.440;2023-07-31T02:43:06;7.90;;;4.45;;
80183;SDS011;69682;52.138;5.440;2023-07-31T02:45:33;12.80;;;3.95;;
80183;SDS011;69682;52.138;5.440;2023-07-31T02:48:00;11.00;;;3.70;;
80183;SDS011;69682;52.138;5.440;2023-07-31T02:50:27;12.50;;;3.45;;
80183;SDS011;69682;52.138;5.440;2023-07-31T02:52:54;9.68;;;3.47;;
80183;SDS011;69682;52.138;5.440;2023-07-31T02:55:21;12.55;;;3.83;;
80183;SDS011;69682;52.138;5.440;2023-07-31T02:57:48;12.38;;;3.53;;
80183;SDS011;69682;52.138;5.440;2023-07-31T03:00:14;13.55;;;3.50;;
80183;SDS011;69682;52.138;5.440;2023-07-31T03:02:41;7.30;;;2.85;;
80183;SDS011;69682;52.138;5.440;2023-07-31T03:05:08;12.98;;;3.83;;
80183;SDS011;69682;52.138;5.440;2023-07-31T03:07:34;13.40;;;3.72;;
80183;SDS011;69682;52.138;5.440;2023-07-31T03:10:01;11.35;;;4.22;;
80183;SDS011;69682;52.138;5.440;2023-07-31T03:12:28;10.63;;;4.07;;
80183;SDS011;69682;52.138;5.440;2023-07-31T03:14:54;15.35;;;3.50;;
80183;SDS011;69682;52.138;5.440;2023-07-31T03:17:21;13.77;;;4.18;;
80183;SDS011;69682;52.138;5.440;2023-07-31T03:19:47;15.40;;;4.82;;
80183;SDS011;69682;52.138;5.440;2023-07-31T03:22:14;13.73;;;4.28;;
80183;SDS011;69682;52.138;5.440;2023-07-31T03:24:40;18.27;;;4.65;;
80183;SDS011;69682;52.138;5.440;2023-07-31T03:27:07;11.65;;;3.97;;
80183;SDS011;69682;52.138;5.440;2023-07-31T03:29:34;14.05;;;4.30;;
80183;SDS011;69682;52.138;5.440;2023-07-31T03:32:00;13.88;;;4.60;;
80183;SDS011;69682;52.138;5.440;2023-07-31T03:34:27;15.02;;;4.22;;
80183;SDS011;69682;52.138;5.440;2023-07-31T03:36:54;13.52;;;4.70;;
80183;SDS011;69682;52.138;5.440;2023-07-31T03:39:20;11.98;;;4.80;;
80183;SDS011;69682;52.138;5.440;2023-07-31T03:41:47;13.55;;;5.07;;
80183;SDS011;69682;52.138;5.440;2023-07-31T03:44:13;15.13;;;4.72;;
80183;SDS011;69682;52.138;5.440;2023-07-31T03:46:40;10.75;;;3.83;;
80183;SDS011;69682;52.138;5.440;2023-07-31T03:49:07;12.27;;;4.28;;
80183;SDS011;69682;52.138;5.440;2023-07-31T03:51:34;13.38;;;4.10;;
80183;SDS011;69682;52.138;5.440;2023-07-31T03:54:00;12.48;;;4.80;;
80183;SDS011;69682;52.138;5.440;2023-07-31T03:56:27;26.02;;;5.72;;
80183;SDS011;69682;52.138;5.440;2023-07-31T03:58:53;13.65;;;5.05;;
80183;SDS011;69682;52.138;5.440;2023-07-31T04:01:20;12.05;;;4.15;;
80183;SDS011;69682;52.138;5.440;2023-07-31T04:03:47;17.58;;;5.68;;
80183;SDS011;69682;52.138;5.440;2023-07-31T04:06:13;10.52;;;4.55;;
80183;SDS011;69682;52.138;5.440;2023-07-31T04:08:44;15.98;;;5.15;;
80183;SDS011;69682;52.138;5.440;2023-07-31T04:11:11;14.95;;;6.40;;
80183;SDS011;69682;52.138;5.440;2023-07-31T04:13:38;15.88;;;3.90;;
80183;SDS011;69682;52.138;5.440;2023-07-31T04:16:05;10.00;;;4.15;;
80183;SDS011;69682;52.138;5.440;2023-07-31T04:18:32;17.08;;;4.85;;
80183;SDS011;69682;52.138;5.440;2023-07-31T04:20:58;12.32;;;4.65;;
80183;SDS011;69682;52.138;5.440;2023-07-31T04:23:25;9.77;;;3.85;;
80183;SDS011;69682;52.138;5.440;2023-07-31T04:25:52;12.95;;;5.15;;
80183;SDS011;69682;52.138;5.440;2023-07-31T04:28:18;16.40;;;4.05;;
80183;SDS011;69682;52.138;5.440;2023-07-31T04:30:45;15.98;;;4.97;;
80183;SDS011;69682;52.138;5.440;2023-07-31T04:33:15;15.05;;;4.85;;
80183;SDS011;69682;52.138;5.440;2023-07-31T04:35:46;12.98;;;4.97;;
80183;SDS011;69682;52.138;5.440;2023-07-31T04:38:18;11.27;;;3.97;;
80183;SDS011;69682;52.138;5.440;2023-07-31T04:40:45;14.80;;;4.40;;
80183;SDS011;69682;52.138;5.440;2023-07-31T04:43:12;11.05;;;4.25;;
80183;SDS011;69682;52.138;5.440;2023-07-31T04:45:39;13.65;;;4.70;;
80183;SDS011;69682;52.138;5.440;2023-07-31T04:48:08;16.05;;;4.00;;
80183;SDS011;69682;52.138;5.440;2023-07-31T04:50:34;11.13;;;3.70;;
80183;SDS011;69682;52.138;5.440;2023-07-31T04:53:01;13.85;;;3.83;;
80183;SDS011;69682;52.138;5.440;2023-07-31T04:55:28;17.65;;;4.50;;
80183;SDS011;69682;52.138;5.440;2023-07-31T04:57:54;12.57;;;4.05;;
80183;SDS011;69682;52.138;5.440;2023-07-31T05:00:21;14.60;;;4.28;;
80183;SDS011;69682;52.138;5.440;2023-07-31T05:02:47;11.55;;;4.13;;
80183;SDS011;69682;52.138;5.440;2023-07-31T05:05:14;13.55;;;4.35;;
80183;SDS011;69682;52.138;5.440;2023-07-31T05:07:41;7.57;;;3.90;;
80183;SDS011;69682;52.138;5.440;2023-07-31T05:10:07;7.90;;;3.88;;
80183;SDS011;69682;52.138;5.440;2023-07-31T05:12:34;9.75;;;3.92;;
80183;SDS011;69682;52.138;5.440;2023-07-31T05:15:01;9.80;;;3.95;;
80183;SDS011;69682;52.138;5.440;2023-07-31T05:17:27;10.07;;;4.90;;
80183;SDS011;69682;52.138;5.440;2023-07-31T05:19:54;10.82;;;3.92;;
80183;SDS011;69682;52.138;5.440;2023-07-31T05:22:20;10.48;;;4.35;;
80183;SDS011;69682;52.138;5.440;2023-07-31T05:24:47;10.70;;;4.85;;
80183;SDS011;69682;52.138;5.440;2023-07-31T05:27:13;11.65;;;4.10;;
80183;SDS011;69682;52.138;5.440;2023-07-31T05:29:44;8.27;;;4.38;;
80183;SDS011;69682;52.138;5.440;2023-07-31T05:32:11;14.57;;;3.63;;
80183;SDS011;69682;52.138;5.440;2023-07-31T05:34:38;10.68;;;3.92;;
80183;SDS011;69682;52.138;5.440;2023-07-31T05:37:05;7.03;;;3.05;;
80183;SDS011;69682;52.138;5.440;2023-07-31T05:39:32;5.53;;;3.20;;
80183;SDS011;69682;52.138;5.440;2023-07-31T05:41:58;7.28;;;3.10;;
80183;SDS011;69682;52.138;5.440;2023-07-31T05:44:25;5.65;;;2.55;;
80183;SDS011;69682;52.138;5.440;2023-07-31T05:46:51;5.72;;;2.33;;
80183;SDS011;69682;52.138;5.440;2023-07-31T05:49:18;5.93;;;2.97;;
80183;SDS011;69682;52.138;5.440;2023-07-31T05:51:44;7.65;;;2.83;;
80183;SDS011;69682;52.138;5.440;2023-07-31T05:54:11;4.40;;;2.22;;
80183;SDS011;69682;52.138;5.440;2023-07-31T05:56:38;5.65;;;2.58;;
80183;SDS011;69682;52.138;5.440;2023-07-31T05:59:05;6.20;;;2.78;;
80183;SDS011;69682;52.138;5.440;2023-07-31T06:01:31;4.20;;;2.55;;
80183;SDS011;69682;52.138;5.440;2023-07-31T06:03:58;6.22;;;2.70;;
80183;SDS011;69682;52.138;5.440;2023-07-31T06:06:25;7.30;;;3.17;;
80183;SDS011;69682;52.138;5.440;2023-07-31T06:08:51;7.00;;;3.10;;
80183;SDS011;69682;52.138;5.440;2023-07-31T06:11:20;6.82;;;2.80;;
80183;SDS011;69682;52.138;5.440;2023-07-31T06:13:47;6.30;;;3.03;;
80183;SDS011;69682;52.138;5.440;2023-07-31T06:16:15;4.50;;;3.05;;
80183;SDS011;69682;52.138;5.440;2023-07-31T06:18:42;5.32;;;3.22;;
80183;SDS011;69682;52.138;5.440;2023-07-31T06:21:09;6.13;;;3.15;;
80183;SDS011;69682;52.138;5.440;2023-07-31T06:23:37;6.45;;;2.67;;
80183;SDS011;69682;52.138;5.440;2023-07-31T06:26:03;3.92;;;2.38;;
80183;SDS011;69682;52.138;5.440;2023-07-31T06:28:30;5.07;;;2.65;;
80183;SDS011;69682;52.138;5.440;2023-07-31T06:33:24;5.95;;;2.70;;
80183;SDS011;69682;52.138;5.440;2023-07-31T06:35:51;4.47;;;2.50;;
80183;SDS011;69682;52.138;5.440;2023-07-31T06:38:25;5.57;;;3.22;;
80183;SDS011;69682;52.138;5.440;2023-07-31T06:40:52;3.38;;;2.00;;
80183;SDS011;69682;52.138;5.440;2023-07-31T06:43:19;4.80;;;2.65;;
80183;SDS011;69682;52.138;5.440;2023-07-31T06:45:46;5.03;;;2.58;;
80183;SDS011;69682;52.138;5.440;2023-07-31T06:48:14;5.20;;;3.58;;
80183;SDS011;69682;52.138;5.440;2023-07-31T06:50:41;5.20;;;3.05;;
80183;SDS011;69682;52.138;5.440;2023-07-31T06:53:07;3.92;;;2.65;;
80183;SDS011;69682;52.138;5.440;2023-07-31T06:55:34;3.40;;;2.22;;
80183;SDS011;69682;52.138;5.440;2023-07-31T06:58:04;5.68;;;2.13;;
80183;SDS011;69682;52.138;5.440;2023-07-31T07:00:30;5.63;;;2.65;;
80183;SDS011;69682;52.138;5.440;2023-07-31T07:02:58;5.18;;;2.17;;
80183;SDS011;69682;52.138;5.440;2023-07-31T07:05:25;4.05;;;2.30;;
80183;SDS011;69682;52.138;5.440;2023-07-31T07:07:51;3.33;;;2.30;;
80183;SDS011;69682;52.138;5.440;2023-07-31T07:10:18;4.57;;;2.55;;
80183;SDS011;69682;52.138;5.440;2023-07-31T07:12:45;5.78;;;2.35;;
80183;SDS011;69682;52.138;5.440;2023-07-31T07:15:12;5.07;;;2.58;;
80183;SDS011;69682;52.138;5.440;2023-07-31T07:17:38;5.88;;;2.60;;
80183;SDS011;69682;52.138;5.440;2023-07-31T07:20:05;5.05;;;2.42;;
80183;SDS011;69682;52.138;5.440;2023-07-31T07:22:33;4.40;;;2.67;;
80183;SDS011;69682;52.138;5.440;2023-07-31T07:24:59;5.90;;;2.90;;
80183;SDS011;69682;52.138;5.440;2023-07-31T07:27:26;3.83;;;2.47;;
80183;SDS011;69682;52.138;5.440;2023-07-31T07:29:52;5.25;;;2.80;;
80183;SDS011;69682;52.138;5.440;2023-07-31T07:32:20;2.30;;;1.98;;
80183;SDS011;69682;52.138;5.440;2023-07-31T07:34:47;6.70;;;2.70;;
80183;SDS011;69682;52.138;5.440;2023-07-31T07:37:17;3.85;;;3.03;;
80183;SDS011;69682;52.138;5.440;2023-07-31T07:39:44;3.45;;;2.90;;
80183;SDS011;69682;52.138;5.440;2023-07-31T07:42:11;3.47;;;2.35;;
80183;SDS011;69682;52.138;5.440;2023-07-31T07:44:37;4.00;;;2.92;;
80183;SDS011;69682;52.138;5.440;2023-07-31T07:47:04;3.25;;;2.28;;
80183;SDS011;69682;52.138;5.440;2023-07-31T07:49:33;3.83;;;2.90;;
80183;SDS011;69682;52.138;5.440;2023-07-31T07:52:01;3.67;;;2.60;;
80183;SDS011;69682;52.138;5.440;2023-07-31T07:54:28;3.97;;;2.78;;
80183;SDS011;69682;52.138;5.440;2023-07-31T07:56:54;3.90;;;2.13;;
80183;SDS011;69682;52.138;5.440;2023-07-31T07:59:21;3.40;;;2.38;;
80183;SDS011;69682;52.138;5.440;2023-07-31T08:01:48;6.90;;;2.35;;
80183;SDS011;69682;52.138;5.440;2023-07-31T08:04:15;4.40;;;2.13;;
80183;SDS011;69682;52.138;5.440;2023-07-31T08:06:41;3.97;;;2.70;;
80183;SDS011;69682;52.138;5.440;2023-07-31T08:09:08;4.95;;;2.10;;
80183;SDS011;69682;52.138;5.440;2023-07-31T08:11:35;2.75;;;2.10;;
80183;SDS011;69682;52.138;5.440;2023-07-31T08:14:01;3.50;;;2.05;;
80183;SDS011;69682;52.138;5.440;2023-07-31T08:16:28;3.35;;;1.80;;
80183;SDS011;69682;52.138;5.440;2023-07-31T08:18:55;6.60;;;1.98;;
80183;SDS011;69682;52.138;5.440;2023-07-31T08:21:22;3.42;;;2.03;;
80183;SDS011;69682;52.138;5.440;2023-07-31T08:23:49;2.67;;;2.00;;
80183;SDS011;69682;52.138;5.440;2023-07-31T08:26:18;4.57;;;2.63;;
80183;SDS011;69682;52.138;5.440;2023-07-31T08:28:45;2.28;;;1.98;;
80183;SDS011;69682;52.138;5.440;2023-07-31T08:31:12;2.10;;;1.75;;
80183;SDS011;69682;52.138;5.440;2023-07-31T08:33:39;3.35;;;1.60;;
80183;SDS011;69682;52.138;5.440;2023-07-31T08:36:06;2.58;;;1.55;;
80183;SDS011;69682;52.138;5.440;2023-07-31T08:38:33;2.10;;;1.83;;
80183;SDS011;69682;52.138;5.440;2023-07-31T08:41:00;2.30;;;1.50;;
80183;SDS011;69682;52.138;5.440;2023-07-31T08:43:26;1.88;;;1.30;;
80183;SDS011;69682;52.138;5.440;2023-07-31T08:45:53;2.25;;;1.55;;
80183;SDS011;69682;52.138;5.440;2023-07-31T08:48:23;2.20;;;1.50;;
80183;SDS011;69682;52.138;5.440;2023-07-31T08:50:53;2.28;;;1.50;;
80183;SDS011;69682;52.138;5.440;2023-07-31T08:53:20;1.77;;;1.30;;
80183;SDS011;69682;52.138;5.440;2023-07-31T08:55:47;1.88;;;1.52;;
80183;SDS011;69682;52.138;5.440;2023-07-31T08:58:15;2.95;;;1.98;;
80183;SDS011;69682;52.138;5.440;2023-07-31T09:00:43;1.40;;;1.15;;
80183;SDS011;69682;52.138;5.440;2023-07-31T09:03:16;2.78;;;1.67;;
80183;SDS011;69682;52.138;5.440;2023-07-31T09:05:45;1.55;;;1.25;;
80183;SDS011;69682;52.138;5.440;2023-07-31T09:08:13;2.17;;;1.48;;
80183;SDS011;69682;52.138;5.440;2023-07-31T09:10:42;3.30;;;1.40;;
80183;SDS011;69682;52.138;5.440;2023-07-31T09:13:09;2.85;;;1.58;;
80183;SDS011;69682;52.138;5.440;2023-07-31T09:15:38;3.97;;;2.15;;
80183;SDS011;69682;52.138;5.440;2023-07-31T09:18:06;3.28;;;1.55;;
80183;SDS011;69682;52.138;5.440;2023-07-31T09:23:10;3.30;;;1.70;;
80183;SDS011;69682;52.138;5.440;2023-07-31T09:25:38;2.80;;;2.30;;
80183;SDS011;69682;52.138;5.440;2023-07-31T09:28:10;2.20;;;1.80;;
80183;SDS011;69682;52.138;5.440;2023-07-31T09:30:44;2.17;;;1.63;;
80183;SDS011;69682;52.138;5.440;2023-07-31T09:33:15;2.35;;;1.35;;
80183;SDS011;69682;52.138;5.440;2023-07-31T09:35:42;3.25;;;1.75;;
80183;SDS011;69682;52.138;5.440;2023-07-31T09:38:10;3.03;;;2.10;;
80183;SDS011;69682;52.138;5.440;2023-07-31T09:40:45;2.78;;;1.73;;
80183;SDS011;69682;52.138;5.440;2023-07-31T09:43:13;2.53;;;1.85;;
80183;SDS011;69682;52.138;5.440;2023-07-31T09:45:44;3.10;;;1.83;;
80183;SDS011;69682;52.138;5.440;2023-07-31T09:48:12;2.80;;;1.95;;
80183;SDS011;69682;52.138;5.440;2023-07-31T09:50:45;2.67;;;1.90;;
80183;SDS011;69682;52.138;5.440;2023-07-31T09:53:13;4.28;;;2.28;;
80183;SDS011;69682;52.138;5.440;2023-07-31T09:58:09;3.67;;;2.17;;
80183;SDS011;69682;52.138;5.440;2023-07-31T10:00:37;1.90;;;1.60;;
80183;SDS011;69682;52.138;5.440;2023-07-31T10:03:07;2.55;;;1.73;;
80183;SDS011;69682;52.138;5.440;2023-07-31T10:05:36;2.67;;;1.85;;
80183;SDS011;69682;52.138;5.440;2023-07-31T10:08:06;3.42;;;1.92;;
80183;SDS011;69682;52.138;5.440;2023-07-31T10:10:36;3.88;;;2.03;;
80183;SDS011;69682;52.138;5.440;2023-07-31T10:13:09;2.53;;;1.83;;
80183;SDS011;69682;52.138;5.440;2023-07-31T10:15:35;3.95;;;1.40;;
80183;SDS011;69682;52.138;5.440;2023-07-31T10:18:03;2.35;;;1.95;;
80183;SDS011;69682;52.138;5.440;2023-07-31T10:20:33;3.83;;;2.00;;
80183;SDS011;69682;52.138;5.440;2023-07-31T10:23:00;5.45;;;2.63;;
80183;SDS011;69682;52.138;5.440;2023-07-31T10:25:27;3.58;;;2.63;;
80183;SDS011;69682;52.138;5.440;2023-07-31T10:27:55;7.35;;;2.63;;
80183;SDS011;69682;52.138;5.440;2023-07-31T10:30:25;3.47;;;2.42;;
80183;SDS011;69682;52.138;5.440;2023-07-31T10:32:53;3.90;;;2.25;;
80183;SDS011;69682;52.138;5.440;2023-07-31T10:35:22;3.25;;;2.35;;
80183;SDS011;69682;52.138;5.440;2023-07-31T10:37:48;3.75;;;2.60;;
80183;SDS011;69682;52.138;5.440;2023-07-31T10:40:19;4.43;;;2.40;;
80183;SDS011;69682;52.138;5.440;2023-07-31T10:45:24;3.40;;;1.65;;
80183;SDS011;69682;52.138;5.440;2023-07-31T10:47:58;6.22;;;3.22;;
80183;SDS011;69682;52.138;5.440;2023-07-31T10:50:30;4.80;;;3.10;;
80183;SDS011;69682;52.138;5.440;2023-07-31T10:53:01;5.28;;;2.85;;
80183;SDS011;69682;52.138;5.440;2023-07-31T10:55:28;4.40;;;2.63;;
80183;SDS011;69682;52.138;5.440;2023-07-31T10:57:56;4.10;;;2.80;;
80183;SDS011;69682;52.138;5.440;2023-07-31T11:00:25;4.63;;;3.20;;
80183;SDS011;69682;52.138;5.440;2023-07-31T11:02:57;4.75;;;2.45;;
80183;SDS011;69682;52.138;5.440;2023-07-31T11:08:13;3.83;;;2.67;;
80183;SDS011;69682;52.138;5.440;2023-07-31T11:10:45;3.70;;;2.58;;
80183;SDS011;69682;52.138;5.440;2023-07-31T11:13:13;3.42;;;2.35;;
80183;SDS011;69682;52.138;5.440;2023-07-31T11:15:40;3.10;;;2.30;;
80183;SDS011;69682;52.138;5.440;2023-07-31T11:18:07;4.50;;;2.58;;
80183;SDS011;69682;52.138;5.440;2023-07-31T11:20:37;3.28;;;2.05;;
80183;SDS011;69682;52.138;5.440;2023-07-31T11:23:08;2.83;;;2.03;;
80183;SDS011;69682;52.138;5.440;2023-07-31T11:25:39;5.50;;;1.98;;
80183;SDS011;69682;52.138;5.440;2023-07-31T11:28:10;3.67;;;1.67;;
80183;SDS011;69682;52.138;5.440;2023-07-31T11:30:38;2.67;;;1.50;;
80183;SDS011;69682;52.138;5.440;2023-07-31T11:33:12;2.40;;;1.90;;
80183;SDS011;69682;52.138;5.440;2023-07-31T11:35:44;3.08;;;1.65;;
80183;SDS011;69682;52.138;5.440;2023-07-31T11:38:12;2.72;;;1.55;;
80183;SDS011;69682;52.138;5.440;2023-07-31T11:40:50;2.67;;;1.40;;
80183;SDS011;69682;52.138;5.440;2023-07-31T11:43:18;2.50;;;1.65;;
80183;SDS011;69682;52.138;5.440;2023-07-31T11:45:53;3.15;;;2.13;;
80183;SDS011;69682;52.138;5.440;2023-07-31T11:48:23;1.88;;;1.70;;
80183;SDS011;69682;52.138;5.440;2023-07-31T11:50:50;2.95;;;1.80;;
80183;SDS011;69682;52.138;5.440;2023-07-31T11:53:19;2.50;;;1.80;;
80183;SDS011;69682;52.138;5.440;2023-07-31T11:55:50;3.28;;;1.88;;
80183;SDS011;69682;52.138;5.440;2023-07-31T11:58:17;2.75;;;1.98;;
80183;SDS011;69682;52.138;5.440;2023-07-31T12:00:44;1.88;;;1.65;;
80183;SDS011;69682;52.138;5.440;2023-07-31T12:03:11;2.50;;;2.08;;
80183;SDS011;69682;52.138;5.440;2023-07-31T12:05:38;3.53;;;2.22;;
80183;SDS011;69682;52.138;5.440;2023-07-31T12:08:08;5.47;;;2.38;;
80183;SDS011;69682;52.138;5.440;2023-07-31T12:10:37;3.95;;;2.03;;
80183;SDS011;69682;52.138;5.440;2023-07-31T12:13:05;2.85;;;2.50;;
80183;SDS011;69682;52.138;5.440;2023-07-31T12:15:42;3.80;;;2.63;;
80183;SDS011;69682;52.138;5.440;2023-07-31T12:18:11;3.63;;;2.38;;
80183;SDS011;69682;52.138;5.440;2023-07-31T12:20:46;3.47;;;2.72;;
80183;SDS011;69682;52.138;5.440;2023-07-31T12:23:21;3.15;;;2.50;;
80183;SDS011;69682;52.138;5.440;2023-07-31T12:28:40;2.95;;;1.85;;
80183;SDS011;69682;52.138;5.440;2023-07-31T12:31:12;3.10;;;2.22;;
80183;SDS011;69682;52.138;5.440;2023-07-31T12:33:41;4.13;;;2.40;;
80183;SDS011;69682;52.138;5.440;2023-07-31T12:36:09;4.47;;;2.22;;
80183;SDS011;69682;52.138;5.440;2023-07-31T12:38:37;2.88;;;2.22;;
80183;SDS011;69682;52.138;5.440;2023-07-31T12:41:04;2.45;;;1.95;;
80183;SDS011;69682;52.138;5.440;2023-07-31T12:43:36;2.78;;;2.10;;
80183;SDS011;69682;52.138;5.440;2023-07-31T12:46:04;4.10;;;2.05;;
80183;SDS011;69682;52.138;5.440;2023-07-31T12:48:31;3.42;;;2.05;;
80183;SDS011;69682;52.138;5.440;2023-07-31T12:50:58;3.40;;;2.50;;
80183;SDS011;69682;52.138;5.440;2023-07-31T12:53:25;3.00;;;2.50;;
80183;SDS011;69682;52.138;5.440;2023-07-31T12:55:51;2.97;;;2.60;;
80183;SDS011;69682;52.138;5.440;2023-07-31T12:58:18;3.35;;;2.03;;
80183;SDS011;69682;52.138;5.440;2023-07-31T13:00:45;4.53;;;2.75;;
80183;SDS011;69682;52.138;5.440;2023-07-31T13:03:11;3.17;;;2.20;;
80183;SDS011;69682;52.138;5.440;2023-07-31T13:05:38;3.85;;;2.65;;
80183;SDS011;69682;52.138;5.440;2023-07-31T13:08:05;3.72;;;2.90;;
80183;SDS011;69682;52.138;5.440;2023-07-31T13:10:31;4.10;;;2.60;;
80183;SDS011;69682;52.138;5.440;2023-07-31T13:12:58;4.10;;;3.08;;
80183;SDS011;69682;52.138;5.440;2023-07-31T13:15:24;5.45;;;2.80;;
80183;SDS011;69682;52.138;5.440;2023-07-31T13:17:51;3.35;;;2.60;;
80183;SDS011;69682;52.138;5.440;2023-07-31T13:20:17;3.50;;;2.03;;
80183;SDS011;69682;52.138;5.440;2023-07-31T13:22:44;4.18;;;2.78;;
80183;SDS011;69682;52.138;5.440;2023-07-31T13:25:12;4.13;;;2.90;;
80183;SDS011;69682;52.138;5.440;2023-07-31T13:27:39;3.78;;;2.80;;
80183;SDS011;69682;52.138;5.440;2023-07-31T13:30:05;4.43;;;2.88;;
80183;SDS011;69682;52.138;5.440;2023-07-31T13:32:33;3.85;;;2.70;;
80183;SDS011;69682;52.138;5.440;2023-07-31T13:34:59;3.40;;;2.72;;
80183;SDS011;69682;52.138;5.440;2023-07-31T13:37:26;4.07;;;2.75;;
80183;SDS011;69682;52.138;5.440;2023-07-31T13:39:53;4.28;;;3.00;;
80183;SDS011;69682;52.138;5.440;2023-07-31T13:42:19;7.03;;;3.08;;
80183;SDS011;69682;52.138;5.440;2023-07-31T13:44:46;4.35;;;3.70;;
80183;SDS011;69682;52.138;5.440;2023-07-31T13:47:12;2.55;;;1.70;;
80183;SDS011;69682;52.138;5.440;2023-07-31T13:49:40;4.93;;;2.92;;
80183;SDS011;69682;52.138;5.440;2023-07-31T13:52:08;3.33;;;1.83;;
80183;SDS011;69682;52.138;5.440;2023-07-31T13:54:34;2.00;;;1.60;;
80183;SDS011;69682;52.138;5.440;2023-07-31T13:57:03;2.25;;;2.05;;
80183;SDS011;69682;52.138;5.440;2023-07-31T13:59:30;1.90;;;1.52;;
80183;SDS011;69682;52.138;5.440;2023-07-31T14:01:56;2.00;;;1.60;;
80183;SDS011;69682;52.138;5.440;2023-07-31T14:04:23;2.58;;;1.63;;
80183;SDS011;69682;52.138;5.440;2023-07-31T14:06:50;2.03;;;1.60;;
80183;SDS011;69682;52.138;5.440;2023-07-31T14:09:16;2.15;;;1.42;;
80183;SDS011;69682;52.138;5.440;2023-07-31T14:11:44;1.70;;;0.95;;
80183;SDS011;69682;52.138;5.440;2023-07-31T14:14:10;1.83;;;1.60;;
80183;SDS011;69682;52.138;5.440;2023-07-31T14:16:37;1.92;;;1.73;;
80183;SDS011;69682;52.138;5.440;2023-07-31T14:19:04;3.05;;;1.60;;
80183;SDS011;69682;52.138;5.440;2023-07-31T14:21:31;2.83;;;1.73;;
80183;SDS011;69682;52.138;5.440;2023-07-31T14:23:57;3.30;;;2.45;;
80183;SDS011;69682;52.138;5.440;2023-07-31T14:26:24;3.25;;;2.38;;
80183;SDS011;69682;52.138;5.440;2023-07-31T14:28:51;4.68;;;3.53;;
80183;SDS011;69682;52.138;5.440;2023-07-31T14:31:17;5.05;;;3.67;;
80183;SDS011;69682;52.138;5.440;2023-07-31T14:33:44;6.93;;;4.05;;
80183;SDS011;69682;52.138;5.440;2023-07-31T14:36:10;5.57;;;4.03;;
80183;SDS011;69682;52.138;5.440;2023-07-31T14:38:37;5.03;;;3.75;;
80183;SDS011;69682;52.138;5.440;2023-07-31T14:41:04;5.95;;;4.30;;
80183;SDS011;69682;52.138;5.440;2023-07-31T14:43:30;5.05;;;3.72;;
80183;SDS011;69682;52.138;5.440;2023-07-31T14:45:57;5.60;;;4.28;;
80183;SDS011;69682;52.138;5.440;2023-07-31T14:48:26;6.53;;;4.65;;
80183;SDS011;69682;52.138;5.440;2023-07-31T14:50:55;7.30;;;4.55;;
80183;SDS011;69682;52.138;5.440;2023-07-31T14:53:22;4.75;;;4.10;;
80183;SDS011;69682;52.138;5.440;2023-07-31T14:55:48;4.85;;;3.90;;
80183;SDS011;69682;52.138;5.440;2023-07-31T14:58:15;5.43;;;3.63;;
80183;SDS011;69682;52.138;5.440;2023-07-31T15:00:43;5.15;;;3.50;;
80183;SDS011;69682;52.138;5.440;2023-07-31T15:03:10;5.40;;;3.58;;
80183;SDS011;69682;52.138;5.440;2023-07-31T15:05:37;4.07;;;2.90;;
80183;SDS011;69682;52.138;5.440;2023-07-31T15:08:04;4.10;;;3.30;;